createdAt,value
2022-08-16T00:00:22.277Z,2.30
2022-08-16T00:05:26.031Z,2.10
2022-08-16T00:10:33.308Z,2.40
2022-08-16T00:15:51.781Z,2.10
2022-08-16T00:20:56.440Z,3.00
2022-08-16T00:26:33.584Z,2.22
2022-08-16T00:31:24.210Z,2.45
2022-08-16T00:36:27.053Z,2.90
2022-08-16T00:41:30.918Z,3.92
2022-08-16T00:46:52.943Z,2.85
2022-08-16T00:52:30.273Z,2.80
2022-08-16T00:57:58.760Z,2.83
2022-08-16T01:02:53.736Z,2.78
2022-08-16T01:07:58.523Z,4.72
2022-08-16T01:13:07.985Z,3.58
2022-08-16T01:24:02.249Z,3.28
2022-08-16T01:29:10.982Z,4.55
2022-08-16T01:34:23.451Z,4.70
2022-08-16T01:39:29.438Z,3.83
2022-08-16T01:44:37.671Z,3.58
2022-08-16T01:50:41.026Z,4.05
2022-08-16T01:55:06.590Z,6.45
2022-08-16T02:00:19.352Z,6.20
2022-08-16T02:05:23.448Z,7.95
2022-08-16T02:10:26.841Z,5.55
2022-08-16T02:15:35.390Z,6.80
2022-08-16T02:20:46.792Z,5.03
2022-08-16T02:25:52.027Z,5.28
2022-08-16T02:30:59.953Z,6.53
2022-08-16T02:36:02.915Z,5.85
2022-08-16T02:41:07.352Z,5.88
2022-08-16T02:46:13.889Z,4.87
2022-08-16T02:51:18.171Z,5.10
2022-08-16T02:56:21.984Z,6.07
2022-08-16T03:01:36.493Z,6.95
2022-08-16T03:06:51.547Z,7.20
2022-08-16T03:12:11.734Z,6.05
2022-08-16T03:17:19.771Z,4.93
2022-08-16T03:22:31.189Z,5.05
2022-08-16T03:27:39.218Z,6.65
2022-08-16T03:32:51.510Z,7.75
2022-08-16T03:38:02.689Z,5.28
2022-08-16T03:43:20.667Z,5.43
2022-08-16T03:48:37.212Z,4.78
2022-08-16T03:54:01.016Z,6.55
2022-08-16T03:59:06.590Z,4.45
2022-08-16T04:04:32.662Z,4.88
2022-08-16T04:09:38.792Z,6.95
2022-08-16T04:14:46.691Z,4.80
2022-08-16T04:19:51.702Z,5.50
2022-08-16T04:24:59.665Z,6.18
2022-08-16T04:30:12.257Z,5.93
2022-08-16T04:35:35.983Z,6.47
2022-08-16T04:40:42.673Z,5.47
2022-08-16T04:45:47.519Z,7.22
2022-08-16T04:51:11.546Z,6.50
2022-08-16T04:56:22.308Z,7.23
2022-08-16T05:01:47.730Z,5.97
2022-08-16T05:06:51.782Z,5.22
2022-08-16T05:12:03.793Z,4.07
2022-08-16T05:17:08.174Z,4.53
2022-08-16T05:22:18.301Z,5.68
2022-08-16T05:27:27.296Z,4.60
2022-08-16T05:32:32.391Z,4.45
2022-08-16T05:37:40.423Z,8.80
2022-08-16T05:42:49.449Z,7.50
2022-08-16T05:48:00.364Z,6.55
2022-08-16T05:53:26.840Z,5.70
2022-08-16T05:58:50.192Z,6.47
2022-08-16T06:03:54.562Z,5.03
2022-08-16T06:09:05.228Z,5.78
2022-08-16T06:14:12.238Z,6.32
2022-08-16T06:19:18.570Z,6.20
2022-08-16T06:24:53.815Z,4.45
2022-08-16T06:29:55.413Z,3.90
2022-08-16T06:35:02.642Z,4.80
2022-08-16T06:40:12.673Z,6.25
2022-08-16T06:45:24.105Z,5.00
2022-08-16T06:50:52.029Z,8.73
2022-08-16T06:55:59.193Z,9.27
2022-08-16T07:01:09.897Z,9.85
2022-08-16T07:06:21.869Z,7.50
2022-08-16T07:11:45.756Z,6.90
2022-08-16T07:16:58.000Z,7.85
2022-08-16T07:22:03.730Z,5.80
2022-08-16T07:27:08.526Z,5.40
2022-08-16T07:32:19.156Z,4.82
2022-08-16T07:37:33.240Z,4.55
2022-08-16T07:42:50.380Z,4.30
2022-08-16T07:47:52.994Z,3.78
2022-08-16T07:52:55.894Z,3.90
2022-08-16T07:58:00.943Z,3.78
2022-08-16T08:03:10.750Z,1.90
2022-08-16T08:08:50.820Z,1.88
2022-08-16T08:13:42.194Z,1.60
2022-08-16T08:18:56.049Z,1.80
2022-08-16T08:24:05.345Z,1.48
2022-08-16T08:29:13.174Z,1.30
2022-08-16T08:34:17.781Z,1.48
2022-08-16T08:39:22.378Z,1.55
2022-08-16T08:44:28.387Z,1.52
2022-08-16T08:49:46.308Z,1.55
2022-08-16T08:54:50.867Z,0.98
2022-08-16T08:59:55.224Z,1.10
2022-08-16T09:04:59.463Z,1.42
2022-08-16T09:10:06.722Z,1.27
2022-08-16T09:15:23.862Z,1.63
2022-08-16T09:20:29.436Z,1.27
2022-08-16T09:25:35.286Z,1.50
2022-08-16T09:30:45.101Z,1.45
2022-08-16T09:35:53.181Z,1.25
2022-08-16T09:40:57.970Z,1.60
2022-08-16T09:46:03.573Z,1.52
2022-08-16T09:51:30.736Z,1.60
2022-08-16T09:56:52.182Z,1.05
2022-08-16T10:01:55.747Z,1.30
2022-08-16T10:12:24.596Z,0.73
2022-08-16T10:17:30.771Z,0.65
2022-08-16T10:22:33.331Z,0.52
2022-08-16T10:27:46.017Z,1.00
2022-08-16T10:32:52.552Z,1.20
2022-08-16T10:37:54.820Z,1.10
2022-08-16T10:42:59.164Z,1.27
2022-08-16T10:48:04.111Z,1.40
2022-08-16T10:53:07.541Z,1.33
2022-08-16T10:58:13.460Z,1.10
2022-08-16T11:08:48.846Z,1.20
2022-08-16T11:14:05.847Z,1.25
2022-08-16T11:19:13.219Z,1.17
2022-08-16T11:24:39.486Z,1.20
2022-08-16T11:29:38.597Z,1.20
2022-08-16T11:35:06.140Z,1.00
2022-08-16T11:40:05.584Z,0.70
2022-08-16T11:45:08.691Z,0.55
2022-08-16T11:50:11.446Z,0.50
2022-08-16T11:55:13.985Z,0.70
2022-08-16T12:00:34.240Z,0.68
2022-08-16T12:05:43.457Z,0.93
2022-08-16T12:10:46.699Z,0.77
2022-08-16T12:15:49.384Z,0.80
2022-08-16T12:20:55.276Z,0.95
2022-08-16T12:26:00.481Z,0.32
2022-08-16T12:31:08.501Z,0.50
2022-08-16T12:36:14.142Z,0.30
2022-08-16T12:41:25.151Z,0.25
2022-08-16T12:46:28.067Z,0.38
2022-08-16T12:51:58.796Z,0.25
2022-08-16T12:56:57.857Z,0.20
2022-08-16T13:02:00.854Z,0.20
2022-08-16T13:07:05.180Z,1.88
2022-08-16T13:12:49.426Z,2.58
2022-08-16T13:17:59.232Z,2.83
2022-08-16T13:23:17.079Z,1.50
2022-08-16T13:29:03.553Z,1.52
2022-08-16T13:34:42.743Z,4.72
2022-08-16T13:39:52.476Z,3.33
2022-08-16T13:45:17.346Z,2.80
2022-08-16T13:50:51.575Z,1.35
2022-08-16T13:56:11.981Z,1.60
2022-08-16T14:01:29.260Z,1.25
2022-08-16T14:06:34.345Z,1.55
2022-08-16T14:11:37.695Z,1.90
2022-08-16T14:16:39.983Z,3.10
2022-08-16T14:22:13.768Z,3.80
2022-08-16T14:27:13.264Z,3.92
2022-08-16T14:32:33.664Z,5.00
2022-08-16T14:37:43.224Z,5.22
2022-08-16T14:42:49.765Z,5.07
2022-08-16T14:47:57.305Z,6.00
2022-08-16T14:53:07.036Z,7.47
2022-08-16T14:58:19.263Z,7.65
2022-08-16T15:03:24.378Z,9.23
2022-08-16T15:08:36.836Z,12.27
2022-08-16T15:13:41.214Z,12.75
2022-08-16T15:18:46.604Z,12.32
2022-08-16T15:23:55.000Z,9.35
2022-08-16T15:29:02.370Z,7.85
2022-08-16T15:34:06.370Z,11.10
2022-08-16T15:39:31.702Z,10.25
2022-08-16T15:44:44.556Z,11.43
2022-08-16T15:49:56.427Z,8.50
2022-08-16T15:55:13.004Z,9.60
2022-08-16T16:00:29.808Z,12.18
2022-08-16T16:05:43.043Z,11.18
2022-08-16T16:10:54.099Z,9.35
2022-08-16T16:16:03.085Z,11.35
2022-08-16T16:21:12.131Z,11.38
2022-08-16T16:26:24.893Z,13.27
2022-08-16T16:31:36.045Z,16.47
2022-08-16T16:36:48.397Z,21.25
2022-08-16T16:41:52.863Z,21.60
2022-08-16T17:06:10.409Z,12.02
2022-08-16T17:11:41.564Z,10.57
2022-08-16T17:16:51.751Z,9.88
2022-08-16T17:21:58.979Z,11.43
2022-08-16T17:27:18.370Z,9.95
2022-08-16T17:32:50.797Z,11.48
2022-08-16T17:38:38.737Z,9.82
2022-08-16T17:44:23.030Z,10.25
2022-08-16T17:49:31.279Z,11.50
2022-08-16T17:54:36.427Z,8.27
2022-08-16T17:59:46.214Z,8.40
2022-08-16T18:05:13.285Z,8.70
2022-08-16T18:10:32.822Z,8.95
2022-08-16T18:15:45.317Z,9.65
2022-08-16T18:21:17.583Z,9.80
2022-08-16T18:26:48.472Z,10.65
2022-08-16T18:31:56.083Z,9.27
2022-08-16T18:37:11.616Z,7.80
2022-08-16T18:42:17.957Z,8.60
2022-08-16T18:47:38.187Z,10.60
2022-08-16T18:52:58.479Z,8.60
2022-08-16T18:58:03.747Z,12.95
2022-08-16T19:03:16.934Z,10.18
2022-08-16T19:08:28.130Z,8.10
2022-08-16T19:13:35.420Z,10.05
2022-08-16T19:24:06.367Z,13.02
2022-08-16T19:29:21.506Z,14.13
2022-08-16T19:34:31.323Z,12.85
2022-08-16T19:39:33.934Z,10.70
2022-08-16T19:44:36.168Z,17.73
2022-08-16T19:49:39.106Z,13.73
2022-08-16T19:54:41.906Z,16.85
2022-08-16T19:59:44.815Z,12.40
2022-08-16T20:04:47.554Z,15.15
2022-08-16T20:09:50.408Z,14.07
2022-08-16T20:14:52.852Z,10.63
2022-08-16T20:19:55.084Z,14.35
2022-08-16T20:24:59.580Z,15.27
2022-08-16T20:30:04.921Z,15.13
2022-08-16T20:35:11.542Z,9.80
2022-08-16T20:40:28.394Z,10.02
2022-08-16T20:45:38.778Z,9.50
2022-08-16T20:50:41.448Z,8.18
2022-08-16T20:55:45.644Z,7.65
2022-08-16T21:00:48.045Z,13.70
2022-08-16T21:05:50.461Z,9.02
2022-08-16T21:10:52.718Z,8.27
2022-08-16T21:15:55.167Z,15.35
2022-08-16T21:20:57.482Z,19.08
2022-08-16T21:25:59.978Z,17.20
2022-08-16T21:31:02.264Z,11.27
2022-08-16T21:36:05.359Z,6.90
2022-08-16T21:41:11.539Z,8.77
2022-08-16T21:46:14.875Z,9.93
2022-08-16T21:51:17.082Z,6.75
2022-08-16T21:56:19.474Z,7.32
2022-08-16T22:01:23.436Z,9.35
2022-08-16T22:06:25.965Z,9.98
2022-08-16T22:11:28.698Z,11.30
2022-08-16T22:16:33.957Z,11.38
2022-08-16T22:21:36.273Z,7.72
2022-08-16T22:26:43.144Z,14.48
2022-08-16T22:31:46.012Z,14.07
2022-08-16T22:36:49.762Z,17.15
2022-08-16T22:41:52.477Z,16.00
2022-08-16T22:46:55.055Z,12.82
2022-08-16T22:52:05.735Z,10.32
2022-08-16T22:57:09.371Z,13.23
2022-08-16T23:02:12.240Z,14.20
2022-08-16T23:07:14.448Z,16.73
2022-08-16T23:12:16.867Z,14.77
2022-08-16T23:17:31.289Z,18.35
2022-08-16T23:23:19.369Z,14.10
2022-08-16T23:28:12.549Z,10.45
2022-08-16T23:33:16.407Z,13.35
2022-08-16T23:38:38.930Z,21.42
2022-08-16T23:43:43.590Z,31.20
2022-08-16T23:49:58.302Z,29.30
2022-08-16T23:54:11.571Z,26.67
2022-08-16T23:59:13.889Z,19.55
